createdAt,value
2023-04-10T00:00:32.774Z,7.10
2023-04-10T00:03:03.346Z,7.10
2023-04-10T00:05:30.673Z,7.10
2023-04-10T00:07:57.223Z,7.00
2023-04-10T00:10:26.209Z,7.10
2023-04-10T00:12:53.824Z,7.10
2023-04-10T00:15:20.640Z,7.10
2023-04-10T00:17:47.255Z,7.00
2023-04-10T00:20:13.836Z,7.00
2023-04-10T00:22:41.804Z,7.00
2023-04-10T00:25:08.693Z,6.90
2023-04-10T00:27:35.333Z,6.90
2023-04-10T00:30:02.588Z,6.90
2023-04-10T00:32:29.259Z,6.90
2023-04-10T00:34:55.882Z,6.80
2023-04-10T00:37:22.604Z,6.80
2023-04-10T00:39:49.159Z,6.80
2023-04-10T00:42:15.696Z,6.80
2023-04-10T00:44:42.335Z,6.80
2023-04-10T00:47:08.904Z,6.80
2023-04-10T00:49:35.845Z,6.80
2023-04-10T00:52:02.478Z,6.80
2023-04-10T00:54:30.333Z,6.70
2023-04-10T00:56:58.446Z,6.80
2023-04-10T00:59:25.264Z,6.70
2023-04-10T01:01:51.954Z,6.70
2023-04-10T01:04:18.898Z,6.70
2023-04-10T01:06:52.904Z,6.70
2023-04-10T01:09:44.399Z,6.70
2023-04-10T01:12:38.160Z,6.70
2023-04-10T01:15:04.725Z,6.70
2023-04-10T01:17:52.370Z,6.70
2023-04-10T01:20:27.486Z,6.70
2023-04-10T01:23:25.365Z,6.70
2023-04-10T01:26:05.521Z,6.70
2023-04-10T01:29:04.131Z,6.60
2023-04-10T01:31:42.443Z,6.60
2023-04-10T01:34:15.500Z,6.60
2023-04-10T01:37:00.487Z,6.60
2023-04-10T01:39:28.466Z,6.60
2023-04-10T01:41:57.804Z,6.60
2023-04-10T01:44:27.763Z,6.60
2023-04-10T01:46:56.268Z,6.70
2023-04-10T01:49:26.174Z,6.70
2023-04-10T01:51:55.545Z,5.60
2023-04-10T01:54:22.596Z,6.60
2023-04-10T01:56:49.192Z,6.60
2023-04-10T01:59:16.104Z,6.60
2023-04-10T02:01:42.711Z,6.60
2023-04-10T02:04:09.469Z,6.60
2023-04-10T02:07:03.614Z,6.70
2023-04-10T02:09:55.862Z,6.60
2023-04-10T02:12:27.398Z,6.60
2023-04-10T02:14:56.101Z,6.70
2023-04-10T02:17:28.724Z,6.60
2023-04-10T02:19:57.065Z,6.60
2023-04-10T02:22:25.645Z,6.60
2023-04-10T02:24:55.487Z,6.60
2023-04-10T02:27:36.316Z,6.60
2023-04-10T02:30:04.296Z,6.70
2023-04-10T02:32:33.295Z,6.60
2023-04-10T02:35:00.186Z,6.60
2023-04-10T02:37:26.785Z,6.60
2023-04-10T02:39:54.848Z,6.60
2023-04-10T02:42:21.480Z,6.60
2023-04-10T02:44:48.403Z,6.60
2023-04-10T02:47:16.104Z,6.60
2023-04-10T02:49:42.673Z,6.60
2023-04-10T02:52:09.345Z,6.50
2023-04-10T02:54:36.053Z,6.60
2023-04-10T02:57:02.907Z,6.80
2023-04-10T02:59:29.549Z,6.50
2023-04-10T03:01:56.298Z,6.30
2023-04-10T03:04:22.988Z,6.30
2023-04-10T03:06:49.654Z,6.30
2023-04-10T03:09:16.908Z,6.40
2023-04-10T03:11:43.522Z,6.40
2023-04-10T03:14:10.138Z,6.40
2023-04-10T03:16:36.950Z,6.50
2023-04-10T03:19:03.836Z,6.50
2023-04-10T03:21:30.475Z,6.50
2023-04-10T03:23:57.017Z,6.40
2023-04-10T03:26:23.961Z,6.40
2023-04-10T03:28:50.900Z,6.40
2023-04-10T03:31:17.665Z,6.40
2023-04-10T03:33:44.405Z,6.40
2023-04-10T03:36:11.416Z,6.40
2023-04-10T03:38:38.119Z,6.50
2023-04-10T03:41:04.997Z,6.50
2023-04-10T03:43:31.666Z,6.40
2023-04-10T03:45:58.584Z,6.40
2023-04-10T03:48:28.275Z,6.40
2023-04-10T03:50:55.403Z,6.40
2023-04-10T03:53:22.112Z,6.30
2023-04-10T03:55:48.661Z,6.30
2023-04-10T03:58:15.284Z,6.30
2023-04-10T04:00:42.121Z,6.30
2023-04-10T04:03:08.912Z,6.20
2023-04-10T04:05:35.718Z,6.30
2023-04-10T04:08:04.672Z,6.20
2023-04-10T04:10:31.311Z,6.30
2023-04-10T04:12:58.005Z,6.20
2023-04-10T04:15:24.787Z,6.20
2023-04-10T04:17:51.806Z,6.20
2023-04-10T04:20:18.440Z,6.20
2023-04-10T04:22:46.185Z,6.20
2023-04-10T04:25:12.852Z,6.20
2023-04-10T04:27:39.463Z,6.20
2023-04-10T04:30:06.897Z,6.10
2023-04-10T04:32:33.501Z,6.00
2023-04-10T04:35:00.090Z,6.00
2023-04-10T04:37:26.730Z,6.00
2023-04-10T04:39:53.275Z,5.90
2023-04-10T04:42:19.873Z,5.80
2023-04-10T04:44:46.503Z,5.70
2023-04-10T04:47:13.064Z,5.60
2023-04-10T04:49:39.593Z,5.50
2023-04-10T04:52:06.212Z,5.70
2023-04-10T04:54:32.760Z,5.70
2023-04-10T04:56:59.312Z,5.60
2023-04-10T04:59:25.854Z,5.70
2023-04-10T05:01:52.731Z,5.80
2023-04-10T05:04:20.646Z,5.90
2023-04-10T05:06:47.286Z,5.90
2023-04-10T05:09:13.867Z,5.90
2023-04-10T05:11:40.947Z,6.00
2023-04-10T05:14:10.182Z,6.00
2023-04-10T05:16:36.751Z,6.00
2023-04-10T05:19:03.400Z,6.10
2023-04-10T05:21:31.146Z,6.30
2023-04-10T05:23:57.725Z,6.40
2023-04-10T05:26:24.274Z,6.50
2023-04-10T05:28:51.014Z,6.60
2023-04-10T05:31:17.606Z,6.50
2023-04-10T05:33:44.179Z,6.60
2023-04-10T05:36:11.137Z,6.60
2023-04-10T05:38:37.817Z,6.70
2023-04-10T05:41:04.435Z,6.80
2023-04-10T05:43:31.028Z,6.90
2023-04-10T05:45:57.664Z,6.90
2023-04-10T05:48:26.060Z,7.00
2023-04-10T05:50:52.840Z,6.90
2023-04-10T05:53:21.045Z,7.10
2023-04-10T05:55:54.474Z,7.30
2023-04-10T05:58:21.110Z,7.70
2023-04-10T06:00:47.771Z,8.30
2023-04-10T06:03:14.629Z,8.70
2023-04-10T06:05:41.662Z,9.00
2023-04-10T06:08:08.273Z,9.40
2023-04-10T06:10:34.845Z,9.60
2023-04-10T06:13:01.412Z,10.10
2023-04-10T06:15:28.512Z,10.90
2023-04-10T06:18:01.295Z,11.00
2023-04-10T06:20:28.025Z,12.00
2023-04-10T06:22:54.577Z,12.00
2023-04-10T06:25:21.151Z,11.30
2023-04-10T06:27:47.726Z,10.60
2023-04-10T06:30:14.306Z,10.30
2023-04-10T06:32:41.647Z,10.50
2023-04-10T06:35:08.706Z,11.10
2023-04-10T06:37:35.445Z,11.30
2023-04-10T06:40:12.941Z,11.10
2023-04-10T06:42:39.566Z,11.20
2023-04-10T06:45:06.705Z,11.40
2023-04-10T06:47:33.501Z,11.50
2023-04-10T06:50:00.213Z,12.20
2023-04-10T06:52:27.038Z,12.80
2023-04-10T06:54:53.674Z,13.60
2023-04-10T06:57:23.344Z,13.80
2023-04-10T06:59:49.945Z,13.90
2023-04-10T07:02:16.588Z,14.30
2023-04-10T07:04:43.188Z,14.30
2023-04-10T07:07:12.402Z,14.50
2023-04-10T07:09:39.570Z,15.10
2023-04-10T07:12:06.229Z,15.60
2023-04-10T07:14:34.884Z,15.70
2023-04-10T07:17:01.873Z,15.60
2023-04-10T07:19:28.807Z,15.60
2023-04-10T07:21:55.485Z,15.50
2023-04-10T07:24:22.189Z,15.30
2023-04-10T07:26:48.758Z,15.80
2023-04-10T07:29:15.819Z,15.40
2023-04-10T07:31:42.574Z,15.50
2023-04-10T07:34:11.490Z,15.60
2023-04-10T07:36:38.370Z,15.10
2023-04-10T07:39:04.975Z,15.00
2023-04-10T07:41:31.692Z,14.80
2023-04-10T07:43:58.236Z,15.00
2023-04-10T07:46:24.834Z,14.80
2023-04-10T07:48:52.135Z,14.90
2023-04-10T07:51:18.938Z,15.90
2023-04-10T07:53:45.513Z,15.90
2023-04-10T07:56:19.910Z,16.20
2023-04-10T07:58:47.101Z,16.20
2023-04-10T08:01:14.632Z,18.30
2023-04-10T08:03:43.174Z,20.40
2023-04-10T08:06:11.254Z,19.00
2023-04-10T08:08:39.812Z,17.80
2023-04-10T08:11:08.506Z,17.10
2023-04-10T08:13:35.135Z,16.50
2023-04-10T08:16:01.946Z,16.70
2023-04-10T08:18:28.477Z,17.40
2023-04-10T08:20:55.135Z,17.90
2023-04-10T08:23:21.710Z,18.80
2023-04-10T08:25:48.425Z,19.10
2023-04-10T08:28:15.344Z,19.90
2023-04-10T08:30:41.938Z,20.60
2023-04-10T08:33:08.517Z,22.70
2023-04-10T08:35:35.112Z,23.60
2023-04-10T08:38:12.620Z,24.10
2023-04-10T08:40:40.727Z,23.30
2023-04-10T08:43:07.291Z,22.10
2023-04-10T08:45:34.096Z,22.80
2023-04-10T08:48:05.291Z,22.30
2023-04-10T08:50:36.055Z,22.30
2023-04-10T08:53:08.990Z,22.80
2023-04-10T08:55:38.322Z,23.70
2023-04-10T08:58:05.260Z,24.40
2023-04-10T09:00:34.836Z,22.30
2023-04-10T09:03:04.838Z,20.40
2023-04-10T09:05:31.975Z,20.00
2023-04-10T09:07:58.617Z,20.10
2023-04-10T09:10:25.251Z,20.20
2023-04-10T09:12:52.362Z,20.10
2023-04-10T09:15:19.059Z,20.70
2023-04-10T09:18:00.812Z,20.50
2023-04-10T09:20:29.710Z,20.30
2023-04-10T09:22:56.727Z,20.30
2023-04-10T09:25:38.957Z,20.90
2023-04-10T09:28:07.380Z,21.40
2023-04-10T09:30:39.910Z,21.40
2023-04-10T09:33:23.416Z,21.30
2023-04-10T09:35:50.725Z,21.60
2023-04-10T09:38:19.093Z,21.40
2023-04-10T09:40:46.953Z,21.40
2023-04-10T09:43:40.083Z,21.00
2023-04-10T09:46:09.659Z,20.30
2023-04-10T09:48:36.216Z,20.90
2023-04-10T09:51:03.139Z,20.80
2023-04-10T09:53:29.827Z,21.80
2023-04-10T09:55:56.909Z,21.30
2023-04-10T09:58:26.345Z,21.90
2023-04-10T10:00:53.531Z,21.00
2023-04-10T10:03:24.052Z,20.70
2023-04-10T10:05:51.716Z,20.30
2023-04-10T10:08:18.791Z,19.90
2023-04-10T10:10:57.260Z,19.70
2023-04-10T10:13:48.405Z,20.90
2023-04-10T10:16:38.479Z,22.90
2023-04-10T10:19:27.114Z,23.80
2023-04-10T10:21:55.393Z,24.00
2023-04-10T10:24:23.704Z,22.90
2023-04-10T10:26:51.804Z,22.70
2023-04-10T10:29:19.579Z,22.30
2023-04-10T10:31:47.614Z,21.30
2023-04-10T10:34:16.431Z,20.10
2023-04-10T10:36:43.236Z,20.60
2023-04-10T10:39:25.675Z,22.00
2023-04-10T10:42:07.895Z,23.70
2023-04-10T10:44:42.847Z,24.20
2023-04-10T10:47:28.885Z,23.80
2023-04-10T10:49:58.215Z,23.80
2023-04-10T10:52:45.844Z,23.20
2023-04-10T10:55:31.244Z,22.80
2023-04-10T10:58:02.428Z,21.70
2023-04-10T11:00:51.172Z,21.20
2023-04-10T11:03:17.913Z,22.00
2023-04-10T11:06:21.275Z,22.20
2023-04-10T11:08:49.611Z,22.50
2023-04-10T11:11:24.421Z,23.30
2023-04-10T11:13:56.137Z,23.40
2023-04-10T11:16:41.729Z,23.40
2023-04-10T11:19:14.948Z,22.70
2023-04-10T11:22:07.305Z,21.90
2023-04-10T11:24:57.516Z,22.20
2023-04-10T11:27:54.396Z,22.30
2023-04-10T11:30:35.292Z,23.00
2023-04-10T11:33:03.804Z,22.20
2023-04-10T11:35:31.713Z,21.90
2023-04-10T11:38:14.439Z,22.30
2023-04-10T11:40:58.421Z,23.60
2023-04-10T11:43:25.335Z,24.00
2023-04-10T11:46:03.026Z,23.60
2023-04-10T11:48:30.225Z,23.10
2023-04-10T11:50:57.508Z,22.50
2023-04-10T11:53:24.467Z,22.80
2023-04-10T11:55:51.736Z,23.00
2023-04-10T11:58:22.997Z,22.70
2023-04-10T12:01:04.802Z,21.60
2023-04-10T12:03:39.752Z,22.00
2023-04-10T12:06:08.474Z,21.90
2023-04-10T12:08:40.572Z,22.80
2023-04-10T12:11:09.412Z,23.80
2023-04-10T12:13:36.981Z,24.20
2023-04-10T12:16:06.772Z,24.00
2023-04-10T12:18:33.918Z,23.30
2023-04-10T12:21:01.413Z,23.70
2023-04-10T12:23:29.674Z,23.40
2023-04-10T12:26:15.187Z,23.30
2023-04-10T12:28:50.336Z,23.10
2023-04-10T12:31:17.255Z,23.10
2023-04-10T12:33:47.058Z,21.20
2023-04-10T12:36:24.230Z,21.10
2023-04-10T12:38:51.055Z,21.60
2023-04-10T12:41:31.490Z,21.90
2023-04-10T12:44:12.347Z,22.30
2023-04-10T12:46:40.566Z,22.40
2023-04-10T12:49:13.189Z,23.60
2023-04-10T12:51:46.387Z,24.50
2023-04-10T12:54:27.038Z,24.20
2023-04-10T12:56:54.463Z,23.60
2023-04-10T12:59:22.488Z,24.00
2023-04-10T13:01:49.591Z,24.30
2023-04-10T13:04:16.698Z,24.00
2023-04-10T13:06:46.661Z,24.10
2023-04-10T13:09:14.144Z,24.10
2023-04-10T13:11:41.881Z,24.40
2023-04-10T13:14:09.484Z,23.60
2023-04-10T13:16:36.186Z,22.90
2023-04-10T13:19:02.897Z,22.00
2023-04-10T13:21:30.017Z,21.70
2023-04-10T13:23:56.682Z,21.30
2023-04-10T13:26:24.240Z,21.30
2023-04-10T13:28:50.870Z,21.20
2023-04-10T13:31:17.560Z,21.40
2023-04-10T13:33:47.738Z,21.50
2023-04-10T13:36:16.332Z,21.00
2023-04-10T13:38:43.029Z,21.40
2023-04-10T13:41:09.762Z,21.40
2023-04-10T13:43:37.402Z,21.50
2023-04-10T13:46:04.052Z,21.30
2023-04-10T13:48:40.037Z,21.60
2023-04-10T13:51:08.264Z,21.20
2023-04-10T13:53:35.065Z,21.90
2023-04-10T13:56:01.733Z,21.70
2023-04-10T13:58:31.684Z,21.10
2023-04-10T14:00:58.448Z,21.00
2023-04-10T14:03:25.396Z,21.00
2023-04-10T14:05:52.800Z,20.80
2023-04-10T14:08:19.766Z,20.90
2023-04-10T14:10:50.658Z,20.80
2023-04-10T14:13:17.906Z,20.00
2023-04-10T14:15:44.839Z,20.10
2023-04-10T14:18:11.585Z,19.90
2023-04-10T14:20:38.923Z,20.10
2023-04-10T14:23:05.756Z,20.00
2023-04-10T14:25:32.325Z,19.80
2023-04-10T14:27:59.703Z,19.70
2023-04-10T14:30:30.782Z,19.80
2023-04-10T14:32:57.600Z,19.60
2023-04-10T14:35:24.302Z,19.10
2023-04-10T14:37:50.938Z,19.10
2023-04-10T14:40:17.526Z,18.90
2023-04-10T14:42:44.181Z,18.80
2023-04-10T14:45:10.959Z,19.00
2023-04-10T14:47:37.635Z,18.90
2023-04-10T14:50:04.570Z,19.00
2023-04-10T14:52:31.136Z,18.40
2023-04-10T14:54:57.706Z,18.30
2023-04-10T14:57:24.329Z,18.40
2023-04-10T14:59:50.872Z,18.20
2023-04-10T15:02:17.561Z,18.10
2023-04-10T15:04:44.195Z,18.10
2023-04-10T15:07:10.802Z,18.10
2023-04-10T15:09:37.753Z,18.10
2023-04-10T15:12:04.494Z,17.90
2023-04-10T15:14:31.055Z,17.90
2023-04-10T15:16:57.708Z,18.00
2023-04-10T15:19:24.300Z,17.90
2023-04-10T15:21:50.865Z,17.80
2023-04-10T15:24:17.431Z,17.90
2023-04-10T15:26:45.704Z,17.90
2023-04-10T15:29:13.268Z,17.80
2023-04-10T15:31:40.196Z,17.80
2023-04-10T15:34:07.267Z,17.90
2023-04-10T15:36:33.860Z,17.90
2023-04-10T15:39:02.699Z,17.90
2023-04-10T15:41:31.637Z,18.00
2023-04-10T15:43:58.361Z,18.00
2023-04-10T15:46:25.656Z,18.00
2023-04-10T15:48:52.451Z,18.00
2023-04-10T15:51:19.076Z,17.90
2023-04-10T15:53:45.650Z,17.90
2023-04-10T15:56:12.301Z,17.90
2023-04-10T15:58:38.879Z,17.90
2023-04-10T16:01:06.192Z,17.80
2023-04-10T16:03:32.865Z,17.90
2023-04-10T16:05:59.630Z,17.80
2023-04-10T16:08:27.307Z,17.90
2023-04-10T16:10:54.290Z,18.10
2023-04-10T16:13:20.917Z,18.00
2023-04-10T16:15:47.566Z,18.00
2023-04-10T16:18:14.172Z,18.00
2023-04-10T16:20:41.883Z,18.00
2023-04-10T16:23:08.531Z,18.10
2023-04-10T16:25:35.267Z,18.10
2023-04-10T16:28:02.332Z,18.10
2023-04-10T16:30:28.899Z,18.00
2023-04-10T16:32:55.511Z,17.90
2023-04-10T16:35:22.665Z,17.80
2023-04-10T16:37:49.471Z,17.60
2023-04-10T16:40:16.057Z,17.70
2023-04-10T16:42:42.797Z,17.70
2023-04-10T16:45:10.547Z,17.60
2023-04-10T16:47:37.974Z,17.50
2023-04-10T16:50:05.162Z,17.50
2023-04-10T16:52:32.204Z,17.50
2023-04-10T16:54:58.838Z,17.40
2023-04-10T16:57:25.385Z,17.30
2023-04-10T16:59:59.120Z,17.20
2023-04-10T17:02:26.682Z,17.20
2023-04-10T17:05:00.407Z,16.90
2023-04-10T17:07:27.135Z,16.80
2023-04-10T17:09:53.766Z,16.80
2023-04-10T17:12:20.418Z,16.50
2023-04-10T17:14:47.103Z,16.40
2023-04-10T17:17:13.747Z,16.30
2023-04-10T17:19:40.488Z,16.20
2023-04-10T17:22:15.874Z,16.00
2023-04-10T17:24:44.174Z,15.70
2023-04-10T17:27:11.319Z,15.50
2023-04-10T17:29:41.164Z,15.30
2023-04-10T17:32:08.792Z,15.20
2023-04-10T17:34:35.795Z,15.10
2023-04-10T17:37:02.755Z,15.00
2023-04-10T17:39:29.504Z,14.90
2023-04-10T17:41:56.773Z,14.80
2023-04-10T17:44:23.507Z,14.70
2023-04-10T17:46:50.296Z,14.70
2023-04-10T17:49:17.065Z,14.60
2023-04-10T17:51:43.717Z,14.40
2023-04-10T17:54:10.458Z,14.40
2023-04-10T17:56:37.073Z,14.30
2023-04-10T17:59:04.074Z,14.20
2023-04-10T18:01:31.028Z,14.10
2023-04-10T18:03:59.064Z,14.10
2023-04-10T18:06:26.381Z,14.10
2023-04-10T18:08:53.260Z,14.00
2023-04-10T18:11:20.146Z,13.90
2023-04-10T18:13:47.115Z,13.90
2023-04-10T18:16:13.883Z,13.90
2023-04-10T18:18:42.106Z,14.00
2023-04-10T18:21:13.175Z,14.00
2023-04-10T18:23:40.220Z,13.80
2023-04-10T18:26:07.210Z,13.80
2023-04-10T18:28:34.107Z,13.80
2023-04-10T18:31:01.098Z,13.80
2023-04-10T18:33:27.811Z,13.70
2023-04-10T18:35:59.316Z,13.70
2023-04-10T18:38:26.532Z,13.60
2023-04-10T18:40:59.418Z,13.60
2023-04-10T18:43:29.455Z,13.50
2023-04-10T18:45:56.849Z,13.40
2023-04-10T18:48:23.597Z,13.40
2023-04-10T18:50:53.673Z,13.30
2023-04-10T18:53:21.177Z,13.20
2023-04-10T18:55:54.409Z,13.20
2023-04-10T18:58:25.374Z,13.20
2023-04-10T19:00:53.465Z,13.10
2023-04-10T19:03:20.192Z,13.00
2023-04-10T19:05:47.716Z,13.10
2023-04-10T19:08:15.831Z,13.00
2023-04-10T19:10:43.036Z,13.00
2023-04-10T19:13:11.818Z,13.00
2023-04-10T19:15:43.836Z,13.00
2023-04-10T19:18:12.398Z,12.90
2023-04-10T19:20:50.485Z,12.90
2023-04-10T19:23:19.670Z,13.00
2023-04-10T19:25:46.586Z,12.80
2023-04-10T19:28:13.472Z,12.80
2023-04-10T19:30:40.319Z,12.70
2023-04-10T19:33:06.912Z,12.70
2023-04-10T19:35:33.580Z,12.60
2023-04-10T19:38:00.273Z,12.50
2023-04-10T19:40:26.933Z,12.50
2023-04-10T19:42:53.701Z,12.40
2023-04-10T19:45:22.096Z,12.40
2023-04-10T19:47:50.846Z,12.30
2023-04-10T19:50:17.479Z,12.20
2023-04-10T19:52:44.096Z,12.20
2023-04-10T19:55:11.004Z,12.10
2023-04-10T19:57:37.673Z,12.10
2023-04-10T20:00:04.699Z,12.10
2023-04-10T20:02:31.437Z,12.10
2023-04-10T20:04:58.250Z,12.10
2023-04-10T20:07:24.962Z,12.00
2023-04-10T20:09:51.554Z,12.00
2023-04-10T20:12:18.245Z,11.90
2023-04-10T20:14:44.965Z,11.90
2023-04-10T20:17:12.216Z,11.90
2023-04-10T20:19:38.799Z,11.90
2023-04-10T20:22:06.900Z,11.90
2023-04-10T20:24:33.465Z,11.90
2023-04-10T20:27:00.129Z,11.80
2023-04-10T20:29:26.665Z,11.80
2023-04-10T20:31:53.291Z,11.70
2023-04-10T20:34:19.904Z,11.70
2023-04-10T20:36:46.486Z,11.60
2023-04-10T20:39:13.048Z,11.70
2023-04-10T20:41:39.632Z,11.70
2023-04-10T20:44:07.026Z,11.70
2023-04-10T20:46:34.015Z,11.60
2023-04-10T20:49:00.758Z,11.50
2023-04-10T20:51:28.755Z,11.50
2023-04-10T20:53:55.653Z,11.40
2023-04-10T20:56:27.280Z,11.50
2023-04-10T20:59:03.223Z,11.50
2023-04-10T21:01:29.865Z,11.40
2023-04-10T21:03:58.677Z,11.40
2023-04-10T21:06:26.367Z,11.40
2023-04-10T21:08:53.139Z,11.30
2023-04-10T21:11:21.911Z,11.20
2023-04-10T21:13:49.110Z,11.20
2023-04-10T21:16:15.834Z,11.00
2023-04-10T21:18:42.518Z,10.90
2023-04-10T21:21:09.490Z,11.10
2023-04-10T21:23:36.277Z,11.00
2023-04-10T21:26:03.445Z,11.00
2023-04-10T21:28:30.074Z,11.00
2023-04-10T21:30:56.687Z,10.90
2023-04-10T21:33:23.250Z,10.80
2023-04-10T21:35:49.890Z,10.90
2023-04-10T21:38:16.485Z,11.00
2023-04-10T21:40:50.457Z,10.90
2023-04-10T21:43:17.077Z,10.80
2023-04-10T21:45:43.646Z,10.90
2023-04-10T21:48:10.369Z,10.80
2023-04-10T21:50:36.987Z,10.70
2023-04-10T21:53:03.600Z,10.60
2023-04-10T21:55:30.183Z,10.70
2023-04-10T21:57:57.244Z,10.60
2023-04-10T22:00:23.999Z,10.60
2023-04-10T22:02:52.426Z,10.60
2023-04-10T22:05:19.319Z,10.70
2023-04-10T22:07:45.900Z,10.60
2023-04-10T22:10:12.533Z,10.60
2023-04-10T22:12:39.199Z,10.60
2023-04-10T22:15:07.746Z,10.60
2023-04-10T22:17:34.531Z,10.60
2023-04-10T22:20:01.430Z,10.60
2023-04-10T22:22:28.023Z,10.60
2023-04-10T22:24:54.638Z,10.60
2023-04-10T22:27:21.303Z,10.60
2023-04-10T22:29:59.960Z,10.60
2023-04-10T22:32:29.262Z,10.60
2023-04-10T22:34:56.011Z,10.60
2023-04-10T22:37:22.574Z,10.60
2023-04-10T22:39:49.174Z,10.60
2023-04-10T22:42:15.849Z,10.60
2023-04-10T22:44:43.927Z,10.70
2023-04-10T22:47:10.580Z,10.60
2023-04-10T22:49:37.152Z,10.50
2023-04-10T22:52:03.794Z,10.50
2023-04-10T22:54:30.469Z,10.40
2023-04-10T22:56:57.735Z,10.40
2023-04-10T22:59:24.368Z,10.30
2023-04-10T23:01:51.594Z,10.30
2023-04-10T23:04:18.430Z,10.30
2023-04-10T23:06:45.109Z,10.20
2023-04-10T23:09:11.664Z,10.20
2023-04-10T23:11:38.744Z,10.20
2023-04-10T23:14:05.482Z,10.20
2023-04-10T23:16:32.138Z,10.10
2023-04-10T23:18:58.908Z,10.20
2023-04-10T23:21:25.517Z,10.20
2023-04-10T23:23:52.066Z,10.20
2023-04-10T23:26:18.745Z,10.20
2023-04-10T23:28:45.502Z,10.20
2023-04-10T23:31:12.166Z,10.20
2023-04-10T23:33:38.756Z,10.30
2023-04-10T23:36:05.828Z,10.30
2023-04-10T23:38:32.428Z,10.30
2023-04-10T23:40:59.030Z,10.30
2023-04-10T23:43:25.687Z,10.30
2023-04-10T23:45:52.228Z,10.30
2023-04-10T23:48:18.791Z,10.30
2023-04-10T23:50:45.459Z,10.40
2023-04-10T23:53:13.434Z,10.40
2023-04-10T23:55:41.421Z,10.30
2023-04-10T23:58:08.099Z,10.30
